sensor_id;sensor_type;location;lat;lon;timestamp;temperature;humidity
9901;DHT22;4989;48.772;9.154;2022-07-15T00:02:21;25.30;50.00
9901;DHT22;4989;48.772;9.154;2022-07-15T00:07:23;25.30;49.10
9901;DHT22;4989;48.772;9.154;2022-07-15T00:12:25;25.20;49.40
9901;DHT22;4989;48.772;9.154;2022-07-15T00:17:28;25.10;48.30
9901;DHT22;4989;48.772;9.154;2022-07-15T00:22:30;24.80;47.00
9901;DHT22;4989;48.772;9.154;2022-07-15T00:27:33;24.20;47.90
9901;DHT22;4989;48.772;9.154;2022-07-15T00:32:35;24.40;49.50
9901;DHT22;4989;48.772;9.154;2022-07-15T00:37:37;24.70;49.80
9901;DHT22;4989;48.772;9.154;2022-07-15T00:42:39;24.40;47.50
9901;DHT22;4989;48.772;9.154;2022-07-15T00:47:50;23.70;49.20
9901;DHT22;4989;48.772;9.154;2022-07-15T00:52:56;23.60;49.00
9901;DHT22;4989;48.772;9.154;2022-07-15T00:58:04;23.30;51.00
9901;DHT22;4989;48.772;9.154;2022-07-15T01:03:07;23.80;51.40
9901;DHT22;4989;48.772;9.154;2022-07-15T01:08:09;23.70;48.80
9901;DHT22;4989;48.772;9.154;2022-07-15T01:13:12;23.70;48.80
9901;DHT22;4989;48.772;9.154;2022-07-15T01:18:15;23.60;47.90
9901;DHT22;4989;48.772;9.154;2022-07-15T01:23:18;23.40;48.20
9901;DHT22;4989;48.772;9.154;2022-07-15T01:28:41;23.10;47.70
9901;DHT22;4989;48.772;9.154;2022-07-15T01:33:45;23.00;48.50
9901;DHT22;4989;48.772;9.154;2022-07-15T01:38:47;23.20;48.90
9901;DHT22;4989;48.772;9.154;2022-07-15T01:44:11;23.40;47.90
9901;DHT22;4989;48.772;9.154;2022-07-15T01:49:18;23.00;47.90
9901;DHT22;4989;48.772;9.154;2022-07-15T01:54:33;23.10;53.20
9901;DHT22;4989;48.772;9.154;2022-07-15T01:59:38;23.40;47.90
9901;DHT22;4989;48.772;9.154;2022-07-15T02:04:40;23.10;47.90
9901;DHT22;4989;48.772;9.154;2022-07-15T02:09:42;22.70;47.90
9901;DHT22;4989;48.772;9.154;2022-07-15T02:14:45;22.20;49.00
9901;DHT22;4989;48.772;9.154;2022-07-15T02:19:47;21.70;50.00
9901;DHT22;4989;48.772;9.154;2022-07-15T02:24:50;21.70;50.00
9901;DHT22;4989;48.772;9.154;2022-07-15T02:29:54;21.70;49.90
9901;DHT22;4989;48.772;9.154;2022-07-15T02:35:00;20.90;51.50
9901;DHT22;4989;48.772;9.154;2022-07-15T02:40:04;21.60;53.30
9901;DHT22;4989;48.772;9.154;2022-07-15T02:45:07;22.50;51.80
9901;DHT22;4989;48.772;9.154;2022-07-15T02:50:09;23.10;55.20
9901;DHT22;4989;48.772;9.154;2022-07-15T02:55:14;23.40;53.00
9901;DHT22;4989;48.772;9.154;2022-07-15T03:00:17;23.60;52.80
9901;DHT22;4989;48.772;9.154;2022-07-15T03:05:24;23.30;53.80
9901;DHT22;4989;48.772;9.154;2022-07-15T03:10:26;23.40;51.90
9901;DHT22;4989;48.772;9.154;2022-07-15T03:15:28;23.30;49.70
9901;DHT22;4989;48.772;9.154;2022-07-15T03:20:31;23.40;52.40
9901;DHT22;4989;48.772;9.154;2022-07-15T03:25:33;23.60;53.80
9901;DHT22;4989;48.772;9.154;2022-07-15T03:30:41;23.40;49.60
9901;DHT22;4989;48.772;9.154;2022-07-15T03:35:46;23.30;51.80
9901;DHT22;4989;48.772;9.154;2022-07-15T03:40:49;23.50;54.70
9901;DHT22;4989;48.772;9.154;2022-07-15T03:45:51;23.60;49.90
9901;DHT22;4989;48.772;9.154;2022-07-15T03:50:55;23.20;49.60
9901;DHT22;4989;48.772;9.154;2022-07-15T03:55:57;23.20;50.60
9901;DHT22;4989;48.772;9.154;2022-07-15T04:01:00;23.30;53.00
9901;DHT22;4989;48.772;9.154;2022-07-15T04:06:02;23.30;54.10
9901;DHT22;4989;48.772;9.154;2022-07-15T04:11:06;23.40;52.50
9901;DHT22;4989;48.772;9.154;2022-07-15T04:16:09;23.60;52.90
9901;DHT22;4989;48.772;9.154;2022-07-15T04:21:14;23.40;49.60
9901;DHT22;4989;48.772;9.154;2022-07-15T04:26:17;22.80;49.90
9901;DHT22;4989;48.772;9.154;2022-07-15T04:31:19;22.50;53.00
9901;DHT22;4989;48.772;9.154;2022-07-15T04:36:29;23.20;53.10
9901;DHT22;4989;48.772;9.154;2022-07-15T04:41:31;23.30;52.90
9901;DHT22;4989;48.772;9.154;2022-07-15T04:46:35;23.60;53.20
9901;DHT22;4989;48.772;9.154;2022-07-15T04:52:00;23.50;50.10
9901;DHT22;4989;48.772;9.154;2022-07-15T04:57:03;23.20;49.70
9901;DHT22;4989;48.772;9.154;2022-07-15T05:02:06;23.00;50.90
9901;DHT22;4989;48.772;9.154;2022-07-15T05:07:12;22.70;50.90
9901;DHT22;4989;48.772;9.154;2022-07-15T05:12:17;23.00;50.60
9901;DHT22;4989;48.772;9.154;2022-07-15T05:17:26;23.10;49.90
9901;DHT22;4989;48.772;9.154;2022-07-15T05:22:28;22.90;50.40
9901;DHT22;4989;48.772;9.154;2022-07-15T05:27:30;22.70;50.50
9901;DHT22;4989;48.772;9.154;2022-07-15T05:32:33;22.70;51.50
9901;DHT22;4989;48.772;9.154;2022-07-15T05:37:41;22.80;50.40
9901;DHT22;4989;48.772;9.154;2022-07-15T05:42:49;22.70;50.40
9901;DHT22;4989;48.772;9.154;2022-07-15T05:47:52;22.90;52.60
9901;DHT22;4989;48.772;9.154;2022-07-15T05:52:59;23.00;50.10
9901;DHT22;4989;48.772;9.154;2022-07-15T05:58:05;23.40;54.80
9901;DHT22;4989;48.772;9.154;2022-07-15T06:03:09;23.70;53.70
9901;DHT22;4989;48.772;9.154;2022-07-15T06:08:17;23.90;53.10
9901;DHT22;4989;48.772;9.154;2022-07-15T06:13:20;24.00;52.50
9901;DHT22;4989;48.772;9.154;2022-07-15T06:18:24;24.10;52.40
9901;DHT22;4989;48.772;9.154;2022-07-15T06:23:29;24.20;48.00
9901;DHT22;4989;48.772;9.154;2022-07-15T06:28:32;24.10;45.30
9901;DHT22;4989;48.772;9.154;2022-07-15T06:33:35;24.20;49.00
9901;DHT22;4989;48.772;9.154;2022-07-15T06:38:38;24.10;46.40
9901;DHT22;4989;48.772;9.154;2022-07-15T06:43:40;24.20;51.90
9901;DHT22;4989;48.772;9.154;2022-07-15T06:49:04;24.40;45.90
9901;DHT22;4989;48.772;9.154;2022-07-15T06:54:06;24.50;51.50
9901;DHT22;4989;48.772;9.154;2022-07-15T06:59:11;24.50;44.70
9901;DHT22;4989;48.772;9.154;2022-07-15T07:04:13;24.10;51.20
9901;DHT22;4989;48.772;9.154;2022-07-15T07:09:17;24.70;50.40
9901;DHT22;4989;48.772;9.154;2022-07-15T07:14:19;25.00;50.90
9901;DHT22;4989;48.772;9.154;2022-07-15T07:19:21;25.10;50.80
9901;DHT22;4989;48.772;9.154;2022-07-15T07:24:23;25.30;48.80
9901;DHT22;4989;48.772;9.154;2022-07-15T07:29:25;25.50;47.80
9901;DHT22;4989;48.772;9.154;2022-07-15T07:34:28;25.60;48.50
9901;DHT22;4989;48.772;9.154;2022-07-15T07:39:30;25.70;47.70
9901;DHT22;4989;48.772;9.154;2022-07-15T07:44:32;25.90;46.30
9901;DHT22;4989;48.772;9.154;2022-07-15T07:49:34;26.10;48.20
9901;DHT22;4989;48.772;9.154;2022-07-15T07:54:37;26.30;46.40
9901;DHT22;4989;48.772;9.154;2022-07-15T07:59:39;26.50;46.20
9901;DHT22;4989;48.772;9.154;2022-07-15T08:04:41;26.80;46.80
9901;DHT22;4989;48.772;9.154;2022-07-15T08:09:43;27.00;45.30
9901;DHT22;4989;48.772;9.154;2022-07-15T08:14:46;27.20;42.50
9901;DHT22;4989;48.772;9.154;2022-07-15T08:19:48;27.60;39.90
9901;DHT22;4989;48.772;9.154;2022-07-15T08:24:51;27.80;42.80
9901;DHT22;4989;48.772;9.154;2022-07-15T08:29:53;27.60;46.30
9901;DHT22;4989;48.772;9.154;2022-07-15T08:34:57;27.70;41.10
9901;DHT22;4989;48.772;9.154;2022-07-15T08:40:02;28.00;41.40
9901;DHT22;4989;48.772;9.154;2022-07-15T08:45:06;28.20;44.80
9901;DHT22;4989;48.772;9.154;2022-07-15T08:50:10;28.20;44.60
9901;DHT22;4989;48.772;9.154;2022-07-15T08:55:16;28.00;45.90
9901;DHT22;4989;48.772;9.154;2022-07-15T09:00:20;27.90;39.30
9901;DHT22;4989;48.772;9.154;2022-07-15T09:05:32;28.10;38.30
9901;DHT22;4989;48.772;9.154;2022-07-15T09:10:49;28.70;44.60
9901;DHT22;4989;48.772;9.154;2022-07-15T09:15:52;28.90;44.20
9901;DHT22;4989;48.772;9.154;2022-07-15T09:20:56;29.10;43.70
9901;DHT22;4989;48.772;9.154;2022-07-15T09:31:37;30.00;38.50
9901;DHT22;4989;48.772;9.154;2022-07-15T09:37:03;30.10;35.80
9901;DHT22;4989;48.772;9.154;2022-07-15T09:42:07;30.20;41.30
9901;DHT22;4989;48.772;9.154;2022-07-15T09:47:16;30.10;41.90
9901;DHT22;4989;48.772;9.154;2022-07-15T09:52:20;30.40;41.20
9901;DHT22;4989;48.772;9.154;2022-07-15T09:57:23;30.40;42.10
9901;DHT22;4989;48.772;9.154;2022-07-15T10:02:25;30.40;42.30
9901;DHT22;4989;48.772;9.154;2022-07-15T10:07:28;31.20;41.40
9901;DHT22;4989;48.772;9.154;2022-07-15T10:28:58;29.80;42.10
9901;DHT22;4989;48.772;9.154;2022-07-15T10:39:17;31.50;36.10
9901;DHT22;4989;48.772;9.154;2022-07-15T10:44:20;32.00;38.40
9901;DHT22;4989;48.772;9.154;2022-07-15T10:49:29;31.80;40.30
9901;DHT22;4989;48.772;9.154;2022-07-15T10:59:39;32.50;39.20
9901;DHT22;4989;48.772;9.154;2022-07-15T11:04:50;32.70;36.30
9901;DHT22;4989;48.772;9.154;2022-07-15T11:09:56;32.60;34.40
9901;DHT22;4989;48.772;9.154;2022-07-15T11:15:00;32.10;39.30
9901;DHT22;4989;48.772;9.154;2022-07-15T11:20:30;32.10;38.90
9901;DHT22;4989;48.772;9.154;2022-07-15T11:25:39;32.20;39.00
9901;DHT22;4989;48.772;9.154;2022-07-15T11:30:44;32.30;36.70
9901;DHT22;4989;48.772;9.154;2022-07-15T11:35:56;32.40;38.20
9901;DHT22;4989;48.772;9.154;2022-07-15T11:41:02;31.90;39.60
9901;DHT22;4989;48.772;9.154;2022-07-15T11:46:30;31.70;40.00
9901;DHT22;4989;48.772;9.154;2022-07-15T11:51:33;32.20;35.90
9901;DHT22;4989;48.772;9.154;2022-07-15T11:56:35;33.10;34.60
9901;DHT22;4989;48.772;9.154;2022-07-15T12:01:37;33.30;37.70
9901;DHT22;4989;48.772;9.154;2022-07-15T12:06:39;33.10;38.50
9901;DHT22;4989;48.772;9.154;2022-07-15T12:11:41;33.30;38.20
9901;DHT22;4989;48.772;9.154;2022-07-15T12:16:46;33.10;38.50
9901;DHT22;4989;48.772;9.154;2022-07-15T12:22:04;33.00;38.80
9901;DHT22;4989;48.772;9.154;2022-07-15T12:27:14;33.10;39.40
9901;DHT22;4989;48.772;9.154;2022-07-15T12:32:16;32.60;39.30
9901;DHT22;4989;48.772;9.154;2022-07-15T12:37:25;32.60;39.30
9901;DHT22;4989;48.772;9.154;2022-07-15T12:42:45;32.70;40.00
9901;DHT22;4989;48.772;9.154;2022-07-15T12:48:16;32.80;39.90
9901;DHT22;4989;48.772;9.154;2022-07-15T12:53:21;32.50;39.00
9901;DHT22;4989;48.772;9.154;2022-07-15T12:58:30;32.10;40.40
9901;DHT22;4989;48.772;9.154;2022-07-15T13:03:33;32.00;40.70
9901;DHT22;4989;48.772;9.154;2022-07-15T13:08:37;32.40;40.30
9901;DHT22;4989;48.772;9.154;2022-07-15T13:13:40;32.70;39.70
9901;DHT22;4989;48.772;9.154;2022-07-15T13:18:44;32.20;40.40
9901;DHT22;4989;48.772;9.154;2022-07-15T13:23:46;31.90;40.70
9901;DHT22;4989;48.772;9.154;2022-07-15T13:28:49;31.90;40.50
9901;DHT22;4989;48.772;9.154;2022-07-15T13:33:51;31.60;41.10
9901;DHT22;4989;48.772;9.154;2022-07-15T13:38:56;32.00;39.50
9901;DHT22;4989;48.772;9.154;2022-07-15T13:43:58;31.80;40.30
9901;DHT22;4989;48.772;9.154;2022-07-15T13:49:00;32.10;40.60
9901;DHT22;4989;48.772;9.154;2022-07-15T13:54:02;32.10;40.10
9901;DHT22;4989;48.772;9.154;2022-07-15T13:59:06;31.90;39.90
9901;DHT22;4989;48.772;9.154;2022-07-15T14:04:10;32.30;40.00
9901;DHT22;4989;48.772;9.154;2022-07-15T14:09:12;32.40;39.60
9901;DHT22;4989;48.772;9.154;2022-07-15T14:14:16;32.20;39.70
9901;DHT22;4989;48.772;9.154;2022-07-15T14:19:19;32.20;40.10
9901;DHT22;4989;48.772;9.154;2022-07-15T14:24:22;32.30;40.00
9901;DHT22;4989;48.772;9.154;2022-07-15T14:29:24;31.80;40.00
9901;DHT22;4989;48.772;9.154;2022-07-15T14:34:31;31.60;40.10
9901;DHT22;4989;48.772;9.154;2022-07-15T14:39:33;31.60;40.30
9901;DHT22;4989;48.772;9.154;2022-07-15T14:44:36;31.30;40.70
9901;DHT22;4989;48.772;9.154;2022-07-15T14:49:40;31.00;41.20
9901;DHT22;4989;48.772;9.154;2022-07-15T14:54:43;31.10;40.80
9901;DHT22;4989;48.772;9.154;2022-07-15T14:59:45;31.00;40.90
9901;DHT22;4989;48.772;9.154;2022-07-15T15:04:47;30.80;41.30
9901;DHT22;4989;48.772;9.154;2022-07-15T15:09:49;30.70;41.30
9901;DHT22;4989;48.772;9.154;2022-07-15T15:14:52;30.30;41.40
9901;DHT22;4989;48.772;9.154;2022-07-15T15:19:54;30.10;42.60
9901;DHT22;4989;48.772;9.154;2022-07-15T15:24:56;29.90;42.10
9901;DHT22;4989;48.772;9.154;2022-07-15T15:29:58;29.60;42.50
9901;DHT22;4989;48.772;9.154;2022-07-15T15:35:01;29.40;42.50
9901;DHT22;4989;48.772;9.154;2022-07-15T15:40:03;29.30;43.30
9901;DHT22;4989;48.772;9.154;2022-07-15T15:45:06;29.10;40.40
9901;DHT22;4989;48.772;9.154;2022-07-15T15:50:09;29.00;43.40
9901;DHT22;4989;48.772;9.154;2022-07-15T15:55:14;28.90;43.10
9901;DHT22;4989;48.772;9.154;2022-07-15T16:00:16;28.50;44.00
9901;DHT22;4989;48.772;9.154;2022-07-15T16:05:18;28.40;44.00
9901;DHT22;4989;48.772;9.154;2022-07-15T16:10:21;28.10;44.40
9901;DHT22;4989;48.772;9.154;2022-07-15T16:15:23;28.10;44.30
9901;DHT22;4989;48.772;9.154;2022-07-15T16:20:25;28.10;44.00
9901;DHT22;4989;48.772;9.154;2022-07-15T16:25:30;28.00;44.40
9901;DHT22;4989;48.772;9.154;2022-07-15T16:30:34;27.80;44.50
9901;DHT22;4989;48.772;9.154;2022-07-15T16:35:36;27.80;44.00
9901;DHT22;4989;48.772;9.154;2022-07-15T16:40:40;27.70;44.70
9901;DHT22;4989;48.772;9.154;2022-07-15T16:45:43;27.80;44.30
9901;DHT22;4989;48.772;9.154;2022-07-15T16:50:45;27.70;44.40
9901;DHT22;4989;48.772;9.154;2022-07-15T16:55:47;27.60;44.30
9901;DHT22;4989;48.772;9.154;2022-07-15T17:00:49;27.40;45.50
9901;DHT22;4989;48.772;9.154;2022-07-15T17:05:51;27.30;45.80
9901;DHT22;4989;48.772;9.154;2022-07-15T17:10:53;27.30;45.00
9901;DHT22;4989;48.772;9.154;2022-07-15T17:15:56;27.30;45.20
9901;DHT22;4989;48.772;9.154;2022-07-15T17:20:58;27.30;46.20
9901;DHT22;4989;48.772;9.154;2022-07-15T17:26:03;27.20;45.70
9901;DHT22;4989;48.772;9.154;2022-07-15T17:31:06;27.10;45.00
9901;DHT22;4989;48.772;9.154;2022-07-15T17:36:08;27.10;45.10
9901;DHT22;4989;48.772;9.154;2022-07-15T17:41:10;27.10;45.50
9901;DHT22;4989;48.772;9.154;2022-07-15T17:46:13;27.10;45.70
9901;DHT22;4989;48.772;9.154;2022-07-15T17:51:17;27.00;45.90
9901;DHT22;4989;48.772;9.154;2022-07-15T17:56:22;27.10;47.90
9901;DHT22;4989;48.772;9.154;2022-07-15T18:01:24;27.00;46.20
9901;DHT22;4989;48.772;9.154;2022-07-15T18:06:27;27.00;47.10
9901;DHT22;4989;48.772;9.154;2022-07-15T18:11:29;26.90;44.00
9901;DHT22;4989;48.772;9.154;2022-07-15T18:16:32;26.90;46.20
9901;DHT22;4989;48.772;9.154;2022-07-15T18:21:34;26.90;46.90
9901;DHT22;4989;48.772;9.154;2022-07-15T18:26:37;26.80;45.90
9901;DHT22;4989;48.772;9.154;2022-07-15T18:31:46;26.80;45.00
9901;DHT22;4989;48.772;9.154;2022-07-15T18:36:48;26.80;46.00
9901;DHT22;4989;48.772;9.154;2022-07-15T18:41:50;26.80;46.10
9901;DHT22;4989;48.772;9.154;2022-07-15T18:46:53;26.80;44.80
9901;DHT22;4989;48.772;9.154;2022-07-15T18:51:55;26.80;45.90
9901;DHT22;4989;48.772;9.154;2022-07-15T18:56:57;26.70;47.00
9901;DHT22;4989;48.772;9.154;2022-07-15T19:01:59;26.70;46.60
9901;DHT22;4989;48.772;9.154;2022-07-15T19:07:01;26.60;43.70
9901;DHT22;4989;48.772;9.154;2022-07-15T19:12:04;26.60;47.20
9901;DHT22;4989;48.772;9.154;2022-07-15T19:17:06;26.50;46.50
9901;DHT22;4989;48.772;9.154;2022-07-15T19:22:08;26.50;45.80
9901;DHT22;4989;48.772;9.154;2022-07-15T19:27:12;26.50;46.70
9901;DHT22;4989;48.772;9.154;2022-07-15T19:32:14;26.50;47.70
9901;DHT22;4989;48.772;9.154;2022-07-15T19:37:17;26.40;46.50
9901;DHT22;4989;48.772;9.154;2022-07-15T19:42:24;26.40;46.60
9901;DHT22;4989;48.772;9.154;2022-07-15T19:47:26;26.40;46.30
9901;DHT22;4989;48.772;9.154;2022-07-15T19:52:29;26.30;46.70
9901;DHT22;4989;48.772;9.154;2022-07-15T19:57:31;26.20;43.60
9901;DHT22;4989;48.772;9.154;2022-07-15T20:02:34;26.10;45.10
9901;DHT22;4989;48.772;9.154;2022-07-15T20:07:36;26.10;43.20
9901;DHT22;4989;48.772;9.154;2022-07-15T20:12:38;26.10;47.30
9901;DHT22;4989;48.772;9.154;2022-07-15T20:17:41;26.00;47.00
9901;DHT22;4989;48.772;9.154;2022-07-15T20:22:45;26.00;45.50
9901;DHT22;4989;48.772;9.154;2022-07-15T20:27:48;25.50;43.10
9901;DHT22;4989;48.772;9.154;2022-07-15T20:32:51;24.80;42.10
9901;DHT22;4989;48.772;9.154;2022-07-15T20:37:53;24.30;46.10
9901;DHT22;4989;48.772;9.154;2022-07-15T20:42:55;24.80;44.30
9901;DHT22;4989;48.772;9.154;2022-07-15T20:47:58;25.20;46.00
9901;DHT22;4989;48.772;9.154;2022-07-15T20:53:00;25.30;46.10
9901;DHT22;4989;48.772;9.154;2022-07-15T20:58:02;24.60;44.60
9901;DHT22;4989;48.772;9.154;2022-07-15T21:03:05;25.10;47.90
9901;DHT22;4989;48.772;9.154;2022-07-15T21:08:07;25.30;46.20
9901;DHT22;4989;48.772;9.154;2022-07-15T21:13:10;25.40;47.10
9901;DHT22;4989;48.772;9.154;2022-07-15T21:18:12;25.40;44.40
9901;DHT22;4989;48.772;9.154;2022-07-15T21:23:15;25.30;46.50
9901;DHT22;4989;48.772;9.154;2022-07-15T21:28:17;25.40;48.20
9901;DHT22;4989;48.772;9.154;2022-07-15T21:33:19;25.40;47.20
9901;DHT22;4989;48.772;9.154;2022-07-15T21:38:22;25.40;46.70
9901;DHT22;4989;48.772;9.154;2022-07-15T21:43:24;25.20;43.80
9901;DHT22;4989;48.772;9.154;2022-07-15T21:48:26;24.80;43.30
9901;DHT22;4989;48.772;9.154;2022-07-15T21:53:28;24.00;43.60
9901;DHT22;4989;48.772;9.154;2022-07-15T21:58:31;23.80;43.70
9901;DHT22;4989;48.772;9.154;2022-07-15T22:03:35;23.10;45.20
9901;DHT22;4989;48.772;9.154;2022-07-15T22:08:37;23.90;47.10
9901;DHT22;4989;48.772;9.154;2022-07-15T22:13:41;24.20;44.40
9901;DHT22;4989;48.772;9.154;2022-07-15T22:18:45;24.40;44.30
9901;DHT22;4989;48.772;9.154;2022-07-15T22:23:47;24.50;45.10
9901;DHT22;4989;48.772;9.154;2022-07-15T22:28:51;24.60;48.40
9901;DHT22;4989;48.772;9.154;2022-07-15T22:33:53;24.70;45.60
9901;DHT22;4989;48.772;9.154;2022-07-15T22:38:55;24.70;47.00
9901;DHT22;4989;48.772;9.154;2022-07-15T22:43:57;24.70;45.40
9901;DHT22;4989;48.772;9.154;2022-07-15T22:48:59;24.60;45.20
9901;DHT22;4989;48.772;9.154;2022-07-15T22:54:01;24.60;43.40
9901;DHT22;4989;48.772;9.154;2022-07-15T22:59:04;23.30;44.70
9901;DHT22;4989;48.772;9.154;2022-07-15T23:04:06;22.30;46.40
9901;DHT22;4989;48.772;9.154;2022-07-15T23:09:08;21.80;48.00
9901;DHT22;4989;48.772;9.154;2022-07-15T23:14:10;21.60;47.90
9901;DHT22;4989;48.772;9.154;2022-07-15T23:19:13;21.20;49.20
9901;DHT22;4989;48.772;9.154;2022-07-15T23:24:15;20.80;49.90
9901;DHT22;4989;48.772;9.154;2022-07-15T23:29:17;20.50;50.80
9901;DHT22;4989;48.772;9.154;2022-07-15T23:34:19;20.90;49.60
9901;DHT22;4989;48.772;9.154;2022-07-15T23:39:21;20.90;49.50
9901;DHT22;4989;48.772;9.154;2022-07-15T23:44:23;20.50;50.00
9901;DHT22;4989;48.772;9.154;2022-07-15T23:49:26;20.40;49.90
9901;DHT22;4989;48.772;9.154;2022-07-15T23:54:28;20.60;49.30
9901;DHT22;4989;48.772;9.154;2022-07-15T23:59:30;21.60;49.50
